createdAt,value
2018-06-08T00:00:59.876Z,0.00
2018-06-08T00:02:00.058Z,0.00
2018-06-08T00:03:00.243Z,0.00
2018-06-08T00:04:00.447Z,0.00
2018-06-08T00:05:00.605Z,0.00
2018-06-08T00:06:00.795Z,0.00
2018-06-08T00:07:00.976Z,0.00
2018-06-08T00:08:01.161Z,0.00
2018-06-08T00:09:01.583Z,0.00
2018-06-08T00:10:01.530Z,0.00
2018-06-08T00:11:01.708Z,0.00
2018-06-08T00:12:01.888Z,0.00
2018-06-08T00:13:02.080Z,0.00
2018-06-08T00:14:02.254Z,0.00
2018-06-08T00:15:02.444Z,0.00
2018-06-08T00:16:02.624Z,0.00
2018-06-08T00:17:02.802Z,0.00
2018-06-08T00:18:02.991Z,0.00
2018-06-08T00:19:03.176Z,0.00
2018-06-08T00:20:03.360Z,0.00
2018-06-08T00:21:03.543Z,0.00
2018-06-08T00:22:03.728Z,0.00
2018-06-08T00:23:03.904Z,0.00
2018-06-08T00:24:04.088Z,0.00
2018-06-08T00:25:04.274Z,0.00
2018-06-08T00:26:04.479Z,0.00
2018-06-08T00:27:04.642Z,0.00
2018-06-08T00:28:04.822Z,0.00
2018-06-08T00:29:05.001Z,0.00
2018-06-08T00:30:05.188Z,0.00
2018-06-08T00:31:05.368Z,0.00
2018-06-08T00:32:05.567Z,0.00
2018-06-08T00:33:05.745Z,0.00
2018-06-08T00:34:05.923Z,0.00
2018-06-08T00:35:06.107Z,0.00
2018-06-08T00:36:06.293Z,0.00
2018-06-08T00:37:06.478Z,0.00
2018-06-08T00:38:06.664Z,0.00
2018-06-08T00:39:06.849Z,0.00
2018-06-08T00:40:07.035Z,0.00
2018-06-08T00:41:07.220Z,0.00
2018-06-08T00:42:07.403Z,0.00
2018-06-08T00:43:07.587Z,0.00
2018-06-08T00:44:07.771Z,0.00
2018-06-08T00:45:07.954Z,0.00
2018-06-08T00:46:08.138Z,0.00
2018-06-08T00:47:08.320Z,0.00
2018-06-08T00:48:08.499Z,0.00
2018-06-08T00:49:08.686Z,0.00
2018-06-08T00:51:09.046Z,0.00
2018-06-08T00:52:09.234Z,0.00
2018-06-08T00:53:09.413Z,0.00
2018-06-08T00:54:09.603Z,0.00
2018-06-08T00:55:09.782Z,0.00
2018-06-08T00:56:09.960Z,0.00
2018-06-08T00:57:10.425Z,0.00
2018-06-08T00:58:10.325Z,0.00
2018-06-08T00:59:10.518Z,0.00
2018-06-08T01:00:10.723Z,0.00
2018-06-08T01:01:10.886Z,0.00
2018-06-08T01:02:11.073Z,0.00
2018-06-08T01:03:11.252Z,0.00
2018-06-08T01:04:11.438Z,0.00
2018-06-08T01:05:11.616Z,0.00
2018-06-08T01:06:11.805Z,0.00
2018-06-08T01:07:11.987Z,0.00
2018-06-08T01:08:12.173Z,0.00
2018-06-08T01:09:12.362Z,0.00
2018-06-08T01:10:12.540Z,0.00
2018-06-08T01:11:12.719Z,0.00
2018-06-08T01:12:12.908Z,0.00
2018-06-08T01:13:13.095Z,0.00
2018-06-08T01:14:13.269Z,0.00
2018-06-08T01:15:13.462Z,0.00
2018-06-08T01:16:13.635Z,0.00
2018-06-08T01:17:13.812Z,0.00
2018-06-08T01:18:13.995Z,0.00
2018-06-08T01:19:14.185Z,0.00
2018-06-08T01:20:14.369Z,0.00
2018-06-08T01:21:14.805Z,0.00
2018-06-08T01:22:14.734Z,0.00
2018-06-08T01:23:14.940Z,0.00
2018-06-08T01:24:15.109Z,0.00
2018-06-08T01:25:15.286Z,0.00
2018-06-08T01:26:15.472Z,0.00
2018-06-08T01:27:15.655Z,0.00
2018-06-08T01:28:15.835Z,0.00
2018-06-08T01:29:16.018Z,0.00
2018-06-08T01:30:16.203Z,0.00
2018-06-08T01:31:16.385Z,0.00
2018-06-08T01:32:16.580Z,0.00
2018-06-08T01:33:16.756Z,0.00
2018-06-08T01:34:16.943Z,0.00
2018-06-08T01:35:17.131Z,0.00
2018-06-08T01:36:17.313Z,0.00
2018-06-08T01:37:17.499Z,0.00
2018-06-08T01:38:17.678Z,0.00
2018-06-08T01:39:17.867Z,0.00
2018-06-08T01:40:18.041Z,0.00
2018-06-08T01:41:18.227Z,0.00
2018-06-08T01:42:18.419Z,0.00
2018-06-08T01:43:18.592Z,0.00
2018-06-08T01:44:18.773Z,0.00
2018-06-08T01:45:18.968Z,0.00
2018-06-08T01:46:19.142Z,0.00
2018-06-08T01:47:19.338Z,0.00
2018-06-08T01:48:19.517Z,0.00
2018-06-08T01:49:19.704Z,0.00
2018-06-08T01:50:19.888Z,0.00
2018-06-08T01:51:20.079Z,0.00
2018-06-08T01:52:20.263Z,0.00
2018-06-08T01:53:20.442Z,0.00
2018-06-08T01:54:20.632Z,0.00
2018-06-08T01:56:20.995Z,0.00
2018-06-08T01:57:21.184Z,0.00
2018-06-08T01:58:21.354Z,0.00
2018-06-08T01:59:21.539Z,0.00
2018-06-08T02:00:21.718Z,0.00
2018-06-08T02:01:21.906Z,0.00
2018-06-08T02:02:22.092Z,0.00
2018-06-08T02:03:22.279Z,0.00
2018-06-08T02:04:22.464Z,0.00
2018-06-08T02:05:22.636Z,0.00
2018-06-08T02:06:22.821Z,0.00
2018-06-08T02:07:23.000Z,0.00
2018-06-08T02:08:23.166Z,0.00
2018-06-08T02:09:23.661Z,0.00
2018-06-08T02:10:23.546Z,0.00
2018-06-08T02:11:23.732Z,0.00
2018-06-08T02:12:23.904Z,0.00
2018-06-08T02:13:24.091Z,0.00
2018-06-08T02:14:24.265Z,0.00
2018-06-08T02:15:24.463Z,0.00
2018-06-08T02:16:24.636Z,0.00
2018-06-08T02:17:24.827Z,0.00
2018-06-08T02:18:25.005Z,0.00
2018-06-08T02:19:25.179Z,0.00
2018-06-08T02:20:25.363Z,0.00
2018-06-08T02:21:25.557Z,0.00
2018-06-08T02:22:25.729Z,0.00
2018-06-08T02:23:25.919Z,0.00
2018-06-08T02:24:26.097Z,0.00
2018-06-08T02:25:26.283Z,0.00
2018-06-08T02:26:26.732Z,0.00
2018-06-08T02:27:26.646Z,0.00
2018-06-08T02:28:26.840Z,0.00
2018-06-08T02:29:27.011Z,0.00
2018-06-08T02:30:27.208Z,0.00
2018-06-08T02:31:27.383Z,4.00
2018-06-08T02:32:27.561Z,4.00
2018-06-08T02:33:27.752Z,4.00
2018-06-08T02:34:27.945Z,4.00
2018-06-08T02:35:28.114Z,0.00
2018-06-08T02:36:28.301Z,0.00
2018-06-08T02:37:28.479Z,0.00
2018-06-08T02:38:28.679Z,4.00
2018-06-08T02:39:28.833Z,4.00
2018-06-08T02:40:29.025Z,4.00
2018-06-08T02:41:29.206Z,4.00
2018-06-08T02:42:29.396Z,4.00
2018-06-08T02:43:29.576Z,4.00
2018-06-08T02:44:29.755Z,4.00
2018-06-08T02:45:29.945Z,4.00
2018-06-08T02:46:30.117Z,4.00
2018-06-08T02:47:30.303Z,8.00
2018-06-08T02:48:30.489Z,4.00
2018-06-08T02:49:30.686Z,8.00
2018-06-08T02:50:30.866Z,12.00
2018-06-08T02:51:31.049Z,12.00
2018-06-08T02:52:31.229Z,12.00
2018-06-08T02:53:31.415Z,16.00
2018-06-08T02:54:31.591Z,16.00
2018-06-08T02:55:31.775Z,16.00
2018-06-08T02:56:31.959Z,20.00
2018-06-08T02:57:33.847Z,24.00
2018-06-08T02:58:32.280Z,28.00
2018-06-08T02:59:32.466Z,28.00
2018-06-08T03:00:32.653Z,36.00
2018-06-08T03:01:32.843Z,40.00
2018-06-08T03:02:33.014Z,40.00
2018-06-08T03:03:33.202Z,40.00
2018-06-08T03:04:33.380Z,40.00
2018-06-08T03:05:33.568Z,40.00
2018-06-08T03:06:33.751Z,40.00
2018-06-08T03:07:33.939Z,40.00
2018-06-08T03:08:34.116Z,44.00
2018-06-08T03:09:34.304Z,44.00
2018-06-08T03:10:34.487Z,48.00
2018-06-08T03:11:34.671Z,56.00
2018-06-08T03:12:34.855Z,64.00
2018-06-08T03:13:35.039Z,72.00
2018-06-08T03:14:35.211Z,80.00
2018-06-08T03:15:35.399Z,84.00
2018-06-08T03:16:35.582Z,92.00
2018-06-08T03:17:35.769Z,100.00
2018-06-08T03:18:35.954Z,104.00
2018-06-08T03:19:36.142Z,108.00
2018-06-08T03:20:36.322Z,116.00
2018-06-08T03:21:36.510Z,124.00
2018-06-08T03:22:36.698Z,128.00
2018-06-08T03:23:36.870Z,140.00
2018-06-08T03:24:37.080Z,152.00
2018-06-08T03:25:37.240Z,164.00
2018-06-08T03:26:37.425Z,176.00
2018-06-08T03:27:37.613Z,192.00
2018-06-08T03:28:37.793Z,212.00
2018-06-08T03:29:37.986Z,228.00
2018-06-08T03:30:38.170Z,244.00
2018-06-08T03:31:38.361Z,256.00
2018-06-08T03:32:38.542Z,268.00
2018-06-08T03:33:38.726Z,276.00
2018-06-08T03:34:38.945Z,288.00
2018-06-08T03:35:39.089Z,296.00
2018-06-08T03:36:39.277Z,304.00
2018-06-08T03:37:39.460Z,312.00
2018-06-08T03:38:39.640Z,328.00
2018-06-08T03:39:39.820Z,340.00
2018-06-08T03:40:40.004Z,352.00
2018-06-08T03:41:40.185Z,356.00
2018-06-08T03:42:40.380Z,364.00
2018-06-08T03:43:40.566Z,372.00
2018-06-08T03:44:40.748Z,368.00
2018-06-08T03:45:40.926Z,364.00
2018-06-08T03:46:41.110Z,356.00
2018-06-08T03:47:41.292Z,348.00
2018-06-08T03:48:41.477Z,344.00
2018-06-08T03:49:41.660Z,344.00
2018-06-08T03:50:41.846Z,348.00
2018-06-08T03:51:42.034Z,356.00
2018-06-08T03:52:42.227Z,360.00
2018-06-08T03:53:42.394Z,368.00
2018-06-08T03:54:42.587Z,376.00
2018-06-08T03:55:42.768Z,384.00
2018-06-08T03:56:42.944Z,388.00
2018-06-08T03:57:43.128Z,392.00
2018-06-08T03:58:43.312Z,396.00
2018-06-08T03:59:43.505Z,396.00
2018-06-08T04:00:43.684Z,400.00
2018-06-08T04:01:43.874Z,396.00
2018-06-08T04:02:44.050Z,400.00
2018-06-08T04:03:44.259Z,400.00
2018-06-08T04:04:44.413Z,404.00
2018-06-08T04:05:44.606Z,408.00
2018-06-08T04:06:44.778Z,412.00
2018-06-08T04:07:44.974Z,420.00
2018-06-08T04:08:45.166Z,424.00
2018-06-08T04:09:45.345Z,432.00
2018-06-08T04:10:45.525Z,440.00
2018-06-08T04:11:45.710Z,448.00
2018-06-08T04:12:45.900Z,460.00
2018-06-08T04:13:46.091Z,464.00
2018-06-08T04:14:46.264Z,472.00
2018-06-08T04:15:46.457Z,472.00
2018-06-08T04:16:46.626Z,476.00
2018-06-08T04:17:46.810Z,476.00
2018-06-08T04:18:46.992Z,472.00
2018-06-08T04:19:47.421Z,472.00
2018-06-08T04:20:47.356Z,476.00
2018-06-08T04:21:47.541Z,476.00
2018-06-08T04:22:47.721Z,480.00
2018-06-08T04:23:47.910Z,484.00
2018-06-08T04:24:48.097Z,484.00
2018-06-08T04:25:48.348Z,484.00
2018-06-08T04:26:48.457Z,476.00
2018-06-08T04:27:48.641Z,472.00
2018-06-08T04:28:48.823Z,460.00
2018-06-08T04:29:49.024Z,452.00
2018-06-08T04:30:49.189Z,444.00
2018-06-08T04:31:49.364Z,432.00
2018-06-08T04:32:49.603Z,428.00
2018-06-08T04:33:49.726Z,424.00
2018-06-08T04:34:49.909Z,416.00
2018-06-08T04:35:50.096Z,416.00
2018-06-08T04:36:50.295Z,416.00
2018-06-08T04:37:50.472Z,412.00
2018-06-08T04:38:50.651Z,416.00
2018-06-08T04:39:50.831Z,416.00
2018-06-08T04:40:51.018Z,416.00
2018-06-08T04:41:51.200Z,420.00
2018-06-08T04:42:51.378Z,420.00
2018-06-08T04:43:51.565Z,420.00
2018-06-08T04:44:51.747Z,420.00
2018-06-08T04:45:51.927Z,420.00
2018-06-08T04:46:52.115Z,424.00
2018-06-08T04:47:52.297Z,424.00
2018-06-08T04:48:52.499Z,432.00
2018-06-08T04:49:52.681Z,436.00
2018-06-08T04:50:52.866Z,440.00
2018-06-08T04:51:53.049Z,448.00
2018-06-08T04:52:53.235Z,452.00
2018-06-08T04:53:53.416Z,456.00
2018-06-08T04:54:53.598Z,464.00
2018-06-08T04:55:53.784Z,472.00
2018-06-08T04:56:53.980Z,476.00
2018-06-08T04:57:54.175Z,484.00
2018-06-08T04:58:54.345Z,492.00
2018-06-08T04:59:54.527Z,504.00
2018-06-08T05:00:54.716Z,512.00
2018-06-08T05:01:54.914Z,528.00
2018-06-08T05:02:55.086Z,536.00
2018-06-08T05:03:55.270Z,560.00
2018-06-08T05:04:55.460Z,576.00
2018-06-08T05:05:55.653Z,592.00
2018-06-08T05:06:55.831Z,608.00
2018-06-08T05:07:56.014Z,620.00
2018-06-08T05:08:56.195Z,636.00
2018-06-08T05:09:56.379Z,660.00
2018-06-08T05:10:56.572Z,676.00
2018-06-08T05:11:56.743Z,700.00
2018-06-08T05:12:56.926Z,716.00
2018-06-08T05:13:57.103Z,732.00
2018-06-08T05:14:57.572Z,744.00
2018-06-08T05:15:57.477Z,756.00
2018-06-08T05:16:57.676Z,760.00
2018-06-08T05:17:57.841Z,768.00
2018-06-08T05:18:58.027Z,768.00
2018-06-08T05:19:58.216Z,764.00
2018-06-08T05:20:58.398Z,768.00
2018-06-08T05:21:58.875Z,780.00
2018-06-08T05:22:58.772Z,788.00
2018-06-08T05:23:58.966Z,804.00
2018-06-08T05:24:59.139Z,828.00
2018-06-08T05:25:59.330Z,844.00
2018-06-08T05:26:59.509Z,864.00
2018-06-08T05:27:59.688Z,880.00
2018-06-08T05:28:59.873Z,900.00
2018-06-08T05:30:00.062Z,912.00
2018-06-08T05:31:00.240Z,920.00
2018-06-08T05:32:00.434Z,928.00
2018-06-08T05:33:00.603Z,928.00
2018-06-08T05:34:00.788Z,936.00
2018-06-08T05:35:00.975Z,952.00
2018-06-08T05:36:01.156Z,972.00
2018-06-08T05:37:01.338Z,1008.00
2018-06-08T05:38:01.527Z,1044.00
2018-06-08T05:39:01.713Z,1088.00
2018-06-08T05:40:01.894Z,1136.00
2018-06-08T05:41:02.090Z,1196.00
2018-06-08T05:42:02.258Z,1252.00
2018-06-08T05:43:02.446Z,1312.00
2018-06-08T05:44:02.629Z,1372.00
2018-06-08T05:45:02.808Z,1440.00
2018-06-08T05:46:02.988Z,1504.00
2018-06-08T05:47:03.178Z,1564.00
2018-06-08T05:48:03.370Z,1628.00
2018-06-08T05:49:03.551Z,1684.00
2018-06-08T05:50:03.739Z,1736.00
2018-06-08T05:51:03.919Z,1780.00
2018-06-08T05:52:04.116Z,1824.00
2018-06-08T05:53:04.294Z,1872.00
2018-06-08T05:54:04.474Z,1916.00
2018-06-08T05:55:04.662Z,1976.00
2018-06-08T05:57:05.032Z,2124.00
2018-06-08T05:58:05.212Z,2224.00
2018-06-08T05:59:05.395Z,2336.00
2018-06-08T06:00:05.592Z,2464.00
2018-06-08T06:01:05.798Z,2596.00
2018-06-08T06:02:05.956Z,2732.00
2018-06-08T06:03:06.140Z,2848.00
2018-06-08T06:04:06.317Z,2932.00
2018-06-08T06:05:06.496Z,2992.00
2018-06-08T06:07:06.859Z,3148.00
2018-06-08T06:08:07.089Z,3236.00
2018-06-08T06:09:07.231Z,3344.00
2018-06-08T06:10:07.414Z,3456.00
2018-06-08T06:11:07.594Z,3580.00
2018-06-08T06:12:07.798Z,3700.00
2018-06-08T06:13:07.964Z,3816.00
2018-06-08T06:14:08.153Z,3936.00
2018-06-08T06:15:08.331Z,4020.00
2018-06-08T06:16:08.511Z,4076.00
2018-06-08T06:17:08.698Z,4116.00
2018-06-08T06:18:08.887Z,4140.00
2018-06-08T06:19:09.067Z,4140.00
2018-06-08T06:20:09.265Z,4124.00
2018-06-08T06:21:09.440Z,4104.00
2018-06-08T06:22:09.621Z,4104.00
2018-06-08T06:23:09.802Z,4124.00
2018-06-08T06:24:09.988Z,4184.00
2018-06-08T06:25:10.175Z,4272.00
2018-06-08T06:26:10.360Z,4380.00
2018-06-08T06:27:10.634Z,4512.00
2018-06-08T06:28:10.731Z,4656.00
2018-06-08T06:29:10.913Z,4780.00
2018-06-08T06:30:11.096Z,4888.00
2018-06-08T06:31:11.282Z,4988.00
2018-06-08T06:32:11.467Z,5072.00
2018-06-08T06:33:11.654Z,5176.00
2018-06-08T06:34:11.833Z,5284.00
2018-06-08T06:35:12.019Z,5400.00
2018-06-08T06:36:12.201Z,5572.00
2018-06-08T06:37:12.389Z,5792.00
2018-06-08T06:38:12.583Z,6076.00
2018-06-08T06:39:12.765Z,6520.00
2018-06-08T06:40:12.951Z,6804.00
2018-06-08T06:41:13.135Z,7092.00
2018-06-08T06:42:13.322Z,7468.00
2018-06-08T06:43:13.502Z,8360.00
2018-06-08T06:44:13.693Z,9996.00
2018-06-08T06:45:13.875Z,10028.00
2018-06-08T06:46:14.054Z,9060.00
2018-06-08T06:47:14.242Z,8800.00
2018-06-08T06:48:14.426Z,8624.00
2018-06-08T06:49:14.616Z,8256.00
2018-06-08T06:50:14.800Z,8272.00
2018-06-08T06:51:15.005Z,8452.00
2018-06-08T06:52:15.170Z,8708.00
2018-06-08T06:53:15.422Z,9020.00
2018-06-08T06:54:15.547Z,9332.00
2018-06-08T06:55:15.730Z,9684.00
2018-06-08T06:56:15.905Z,10104.00
2018-06-08T06:57:16.090Z,10568.00
2018-06-08T06:58:16.306Z,12256.00
2018-06-08T06:59:16.472Z,11800.00
2018-06-08T07:00:16.673Z,10248.00
2018-06-08T07:01:16.857Z,9756.00
2018-06-08T07:02:17.038Z,9448.00
2018-06-08T07:03:17.229Z,9328.00
2018-06-08T07:04:17.403Z,9448.00
2018-06-08T07:05:17.585Z,9048.00
2018-06-08T07:06:17.774Z,8828.00
2018-06-08T07:07:17.961Z,9240.00
2018-06-08T07:08:18.133Z,8952.00
2018-06-08T07:09:18.322Z,8488.00
2018-06-08T07:10:18.514Z,8472.00
2018-06-08T07:11:18.706Z,8984.00
2018-06-08T07:12:18.869Z,9004.00
2018-06-08T07:13:19.062Z,8576.00
2018-06-08T07:14:19.249Z,8404.00
2018-06-08T07:15:19.431Z,8340.00
2018-06-08T07:16:19.612Z,8300.00
2018-06-08T07:17:19.801Z,8108.00
2018-06-08T07:18:19.991Z,7840.00
2018-06-08T07:19:20.170Z,7616.00
2018-06-08T07:20:20.355Z,7448.00
2018-06-08T07:21:20.543Z,7356.00
2018-06-08T07:22:20.748Z,7340.00
2018-06-08T07:23:20.915Z,7324.00
2018-06-08T07:24:21.099Z,7296.00
2018-06-08T07:25:21.288Z,7280.00
2018-06-08T07:26:21.480Z,7248.00
2018-06-08T07:27:21.667Z,7192.00
2018-06-08T07:28:21.856Z,7100.00
2018-06-08T07:29:22.045Z,6960.00
2018-06-08T07:30:22.233Z,6784.00
2018-06-08T07:31:22.417Z,6600.00
2018-06-08T07:32:22.605Z,6436.00
2018-06-08T07:33:22.789Z,6336.00
2018-06-08T07:34:22.974Z,6288.00
2018-06-08T07:35:23.159Z,6288.00
2018-06-08T07:36:23.349Z,6336.00
2018-06-08T07:37:23.538Z,6416.00
2018-06-08T07:38:23.716Z,6520.00
2018-06-08T07:39:23.906Z,6580.00
2018-06-08T07:40:24.099Z,6584.00
2018-06-08T07:41:24.275Z,6596.00
2018-06-08T07:42:24.462Z,6600.00
2018-06-08T07:43:24.654Z,6648.00
2018-06-08T07:44:24.830Z,6804.00
2018-06-08T07:45:25.020Z,7012.00
2018-06-08T07:46:25.207Z,7316.00
2018-06-08T07:47:25.394Z,7724.00
2018-06-08T07:48:25.581Z,8204.00
2018-06-08T07:49:25.770Z,8680.00
2018-06-08T07:50:25.984Z,9628.00
2018-06-08T07:51:26.140Z,12104.00
2018-06-08T07:52:26.333Z,9364.00
2018-06-08T07:53:26.518Z,8692.00
2018-06-08T07:54:26.693Z,8708.00
2018-06-08T07:55:26.886Z,9064.00
2018-06-08T07:56:27.067Z,9672.00
2018-06-08T07:57:27.257Z,10188.00
2018-06-08T07:58:27.442Z,10288.00
2018-06-08T07:59:27.634Z,10392.00
2018-06-08T08:00:27.829Z,10344.00
2018-06-08T08:01:28.006Z,10224.00
2018-06-08T08:02:28.192Z,10392.00
2018-06-08T08:03:28.385Z,9984.00
2018-06-08T08:04:28.572Z,10092.00
2018-06-08T08:05:28.757Z,9588.00
2018-06-08T08:47:21.547Z,9964.00
2018-06-08T08:48:21.733Z,11244.00
2018-06-08T08:49:21.916Z,11656.00
2018-06-08T08:50:22.110Z,11800.00
2018-06-08T08:51:22.289Z,12972.00
2018-06-08T08:52:22.478Z,12992.00
2018-06-08T08:53:22.687Z,12188.00
2018-06-08T08:54:22.876Z,12532.00
2018-06-08T08:55:24.058Z,14140.00
2018-06-08T08:56:23.251Z,13936.00
2018-06-08T08:57:23.428Z,13640.00
2018-06-08T08:58:23.631Z,13920.00
2018-06-08T08:59:23.808Z,13876.00
2018-06-08T09:00:23.992Z,13404.00
2018-06-08T09:01:24.178Z,13264.00
2018-06-08T09:02:24.368Z,13296.00
2018-06-08T09:03:24.553Z,13368.00
2018-06-08T09:04:24.741Z,13208.00
2018-06-08T09:05:24.931Z,11860.00
2018-06-08T09:06:25.127Z,11536.00
2018-06-08T09:07:25.315Z,11420.00
2018-06-08T09:08:25.505Z,10716.00
2018-06-08T09:09:25.688Z,10664.00
2018-06-08T09:10:25.879Z,9804.00
2018-06-08T09:11:26.128Z,11064.00
2018-06-08T09:12:26.270Z,10904.00
2018-06-08T09:13:26.462Z,10772.00
2018-06-08T09:14:26.655Z,11184.00
2018-06-08T09:15:26.875Z,11504.00
2018-06-08T09:16:27.030Z,11516.00
2018-06-08T09:17:27.225Z,11832.00
2018-06-08T09:18:27.418Z,11996.00
2018-06-08T09:19:27.851Z,12100.00
2018-06-08T09:20:27.781Z,12504.00
2018-06-08T09:21:27.977Z,12620.00
2018-06-08T09:22:28.177Z,12708.00
2018-06-08T09:23:28.348Z,12512.00
2018-06-08T09:24:28.546Z,12100.00
2018-06-08T09:25:28.729Z,12292.00
2018-06-08T09:26:28.919Z,10768.00
2018-06-08T09:27:29.103Z,9504.00
2018-06-08T09:28:29.291Z,9384.00
2018-06-08T09:29:29.486Z,9492.00
2018-06-08T09:30:29.676Z,9576.00
2018-06-08T09:31:29.853Z,9764.00
2018-06-08T09:32:30.044Z,10248.00
2018-06-08T09:33:30.226Z,11060.00
2018-06-08T09:34:30.409Z,10344.00
2018-06-08T09:35:30.607Z,11420.00
2018-06-08T09:36:30.898Z,12204.00
2018-06-08T09:37:30.955Z,11720.00
2018-06-08T09:38:31.161Z,11120.00
2018-06-08T09:39:31.354Z,11612.00
2018-06-08T09:40:31.533Z,10176.00
2018-06-08T09:41:31.728Z,12184.00
2018-06-08T09:42:31.910Z,12440.00
2018-06-08T09:43:32.104Z,12236.00
2018-06-08T09:44:32.297Z,11976.00
2018-06-08T09:45:32.476Z,11804.00
2018-06-08T09:46:32.667Z,11712.00
2018-06-08T09:47:32.857Z,11368.00
2018-06-08T09:48:33.053Z,11248.00
2018-06-08T09:49:33.236Z,11332.00
2018-06-08T09:50:33.420Z,11288.00
2018-06-08T09:51:33.610Z,11540.00
2018-06-08T09:52:33.807Z,11388.00
2018-06-08T09:53:33.978Z,11468.00
2018-06-08T09:54:34.179Z,11184.00
2018-06-08T09:55:34.359Z,11432.00
2018-06-08T09:56:34.543Z,11376.00
2018-06-08T09:57:34.750Z,11532.00
2018-06-08T09:58:34.936Z,10644.00
2018-06-08T09:59:35.139Z,11232.00
2018-06-08T10:00:35.316Z,11204.00
2018-06-08T10:01:35.510Z,11680.00
2018-06-08T10:02:35.705Z,11704.00
2018-06-08T10:03:35.895Z,11656.00
2018-06-08T10:04:36.086Z,11452.00
2018-06-08T10:05:36.274Z,11320.00
2018-06-08T10:06:36.465Z,11144.00
2018-06-08T10:07:36.656Z,11128.00
2018-06-08T10:08:36.858Z,11196.00
2018-06-08T10:09:37.044Z,10896.00
2018-06-08T10:10:37.240Z,10904.00
2018-06-08T10:11:37.432Z,11016.00
2018-06-08T10:12:37.626Z,10956.00
2018-06-08T10:13:37.833Z,10696.00
2018-06-08T10:14:38.005Z,10332.00
2018-06-08T10:15:38.185Z,9972.00
2018-06-08T10:16:38.391Z,9656.00
2018-06-08T10:17:38.565Z,7412.00
2018-06-08T10:18:38.766Z,7100.00
2018-06-08T10:19:38.947Z,8436.00
2018-06-08T10:20:39.132Z,8756.00
2018-06-08T10:21:39.330Z,8116.00
2018-06-08T10:22:39.517Z,8940.00
2018-06-08T10:23:39.699Z,8324.00
2018-06-08T10:24:39.905Z,9500.00
2018-06-08T10:25:40.081Z,9552.00
2018-06-08T10:26:40.282Z,9076.00
2018-06-08T10:27:40.470Z,8256.00
2018-06-08T10:29:40.846Z,7392.00
2018-06-08T10:30:41.040Z,7676.00
2018-06-08T10:31:41.230Z,7092.00
2018-06-08T10:32:41.422Z,6980.00
2018-06-08T10:33:41.604Z,6900.00
2018-06-08T10:34:41.795Z,6892.00
2018-06-08T10:35:41.994Z,6688.00
2018-06-08T10:36:42.188Z,6548.00
2018-06-08T10:37:42.377Z,6236.00
2018-06-08T10:38:42.566Z,6404.00
2018-06-08T10:39:42.755Z,6628.00
2018-06-08T10:40:42.935Z,6756.00
2018-06-08T10:41:43.130Z,7088.00
2018-06-08T10:42:43.316Z,6704.00
2018-06-08T10:43:43.495Z,6656.00
2018-06-08T10:44:43.692Z,6940.00
2018-06-08T10:45:43.882Z,7068.00
2018-06-08T10:46:44.123Z,7192.00
2018-06-08T10:47:44.268Z,7164.00
2018-06-08T10:48:44.448Z,7392.00
2018-06-08T10:49:44.648Z,7640.00
2018-06-08T10:50:44.845Z,7396.00
2018-06-08T10:51:45.031Z,7284.00
2018-06-08T10:52:45.235Z,7400.00
2018-06-08T10:53:45.397Z,7648.00
2018-06-08T10:54:45.587Z,7576.00
2018-06-08T10:55:45.795Z,7664.00
2018-06-08T10:56:45.979Z,7584.00
2018-06-08T10:57:46.163Z,7884.00
2018-06-08T10:58:46.353Z,8096.00
2018-06-08T10:59:46.541Z,8324.00
2018-06-08T11:00:46.980Z,8372.00
2018-06-08T11:01:46.944Z,8112.00
2018-06-08T11:02:47.128Z,7248.00
2018-06-08T11:03:47.322Z,7004.00
2018-06-08T11:04:47.475Z,6928.00
2018-06-08T11:05:47.664Z,7132.00
2018-06-08T11:06:47.860Z,7512.00
2018-06-08T11:07:48.051Z,6736.00
2018-06-08T11:08:48.240Z,8160.00
2018-06-08T11:09:48.438Z,8236.00
2018-06-08T11:10:48.615Z,6872.00
2018-06-08T11:11:48.804Z,6404.00
2018-06-08T11:12:48.992Z,6328.00
2018-06-08T11:13:49.185Z,7960.00
2018-06-08T11:14:49.382Z,8016.00
2018-06-08T11:15:49.563Z,8024.00
2018-06-08T11:16:49.751Z,7868.00
2018-06-08T11:17:49.940Z,7888.00
2018-06-08T11:18:50.129Z,7364.00
2018-06-08T11:19:50.343Z,7288.00
2018-06-08T11:20:50.532Z,7000.00
2018-06-08T11:21:50.947Z,5868.00
2018-06-08T11:22:50.894Z,4856.00
2018-06-08T11:23:51.090Z,4728.00
2018-06-08T11:24:51.293Z,5012.00
2018-06-08T11:25:51.470Z,5240.00
2018-06-08T11:26:51.696Z,5556.00
2018-06-08T11:27:51.853Z,5092.00
2018-06-08T11:28:52.050Z,4820.00
2018-06-08T11:29:52.465Z,4824.00
2018-06-08T11:30:52.422Z,4916.00
2018-06-08T11:31:52.618Z,5076.00
2018-06-08T11:32:52.813Z,5136.00
2018-06-08T11:33:52.962Z,5180.00
2018-06-08T11:34:53.157Z,5216.00
2018-06-08T11:35:53.351Z,5168.00
2018-06-08T11:36:53.540Z,5128.00
2018-06-08T11:37:53.727Z,5068.00
2018-06-08T11:38:53.922Z,5112.00
2018-06-08T11:39:54.112Z,5236.00
2018-06-08T11:40:54.315Z,5356.00
2018-06-08T11:41:54.497Z,5412.00
2018-06-08T11:43:54.875Z,5492.00
2018-06-08T11:44:55.108Z,5512.00
2018-06-08T11:45:55.285Z,5684.00
2018-06-08T11:46:55.447Z,5844.00
2018-06-08T11:47:55.642Z,5856.00
2018-06-08T11:48:55.834Z,5892.00
2018-06-08T11:49:56.026Z,5884.00
2018-06-08T11:50:56.212Z,5812.00
2018-06-08T11:51:56.409Z,5816.00
2018-06-08T11:52:56.579Z,5836.00
2018-06-08T11:53:56.769Z,6396.00
2018-06-08T11:54:56.966Z,6984.00
2018-06-08T11:55:57.147Z,6576.00
2018-06-08T11:56:57.344Z,6748.00
2018-06-08T11:57:57.530Z,6812.00
2018-06-08T11:58:57.712Z,6640.00
2018-06-08T11:59:57.913Z,6324.00
2018-06-08T12:00:58.095Z,4880.00
2018-06-08T12:01:58.285Z,4952.00
2018-06-08T12:02:58.479Z,4676.00
2018-06-08T12:03:58.666Z,4600.00
2018-06-08T12:04:58.851Z,4444.00
2018-06-08T12:05:59.048Z,4380.00
2018-06-08T12:06:59.234Z,4320.00
2018-06-08T12:07:59.430Z,4344.00
2018-06-08T12:08:59.626Z,4412.00
2018-06-08T12:09:59.803Z,4556.00
2018-06-08T12:11:00.008Z,4504.00
2018-06-08T12:12:00.183Z,4612.00
2018-06-08T12:13:00.376Z,4688.00
2018-06-08T12:14:00.572Z,4808.00
2018-06-08T12:15:00.750Z,5008.00
2018-06-08T12:16:00.947Z,5264.00
2018-06-08T12:17:01.153Z,5364.00
2018-06-08T12:18:01.318Z,5424.00
2018-06-08T12:19:01.505Z,5436.00
2018-06-08T12:20:01.691Z,5452.00
2018-06-08T12:21:01.881Z,5476.00
2018-06-08T12:22:02.067Z,5556.00
2018-06-08T12:23:02.259Z,6076.00
2018-06-08T12:24:02.447Z,5940.00
2018-06-08T12:25:02.641Z,5704.00
2018-06-08T12:26:02.824Z,5764.00
2018-06-08T12:27:03.011Z,5816.00
2018-06-08T12:28:03.202Z,5964.00
2018-06-08T12:29:03.389Z,6008.00
2018-06-08T12:30:03.572Z,5952.00
2018-06-08T12:31:03.767Z,5876.00
2018-06-08T12:32:03.958Z,5876.00
2018-06-08T12:33:04.147Z,5720.00
2018-06-08T12:34:04.332Z,5588.00
2018-06-08T12:35:04.523Z,5476.00
2018-06-08T12:36:04.713Z,5400.00
2018-06-08T12:37:04.900Z,5332.00
2018-06-08T12:38:05.088Z,5272.00
2018-06-08T12:39:05.276Z,5216.00
2018-06-08T12:40:05.459Z,5140.00
2018-06-08T12:41:05.661Z,5104.00
2018-06-08T12:42:05.855Z,5152.00
2018-06-08T12:43:06.040Z,5264.00
2018-06-08T12:44:06.227Z,6304.00
2018-06-08T12:45:06.410Z,7020.00
2018-06-08T12:47:06.800Z,7216.00
2018-06-08T12:48:06.978Z,7380.00
2018-06-08T12:49:07.186Z,7524.00
2018-06-08T12:50:07.354Z,7440.00
2018-06-08T12:51:07.540Z,7252.00
2018-06-08T12:52:07.732Z,7124.00
2018-06-08T12:53:07.916Z,6800.00
2018-06-08T12:54:08.104Z,6672.00
2018-06-08T12:55:08.294Z,6424.00
2018-06-08T12:56:08.488Z,6360.00
2018-06-08T12:57:08.671Z,6296.00
2018-06-08T12:58:08.863Z,5744.00
2018-06-08T12:59:09.051Z,4544.00
2018-06-08T13:00:09.237Z,4592.00
2018-06-08T13:01:09.422Z,4532.00
2018-06-08T13:02:09.610Z,5580.00
2018-06-08T13:03:09.823Z,6092.00
2018-06-08T13:04:09.988Z,4316.00
2018-06-08T13:05:10.184Z,4212.00
2018-06-08T13:06:10.376Z,4248.00
2018-06-08T13:07:10.577Z,4276.00
2018-06-08T13:08:10.746Z,4260.00
2018-06-08T13:09:11.066Z,4324.00
2018-06-08T13:10:11.240Z,4428.00
2018-06-08T13:11:11.713Z,4428.00
2018-06-08T13:12:11.707Z,4372.00
2018-06-08T13:13:11.790Z,4248.00
2018-06-08T13:14:11.999Z,4188.00